Time;durP1;ratioP1;P1;durP2;ratioP2;P2;SDS_P1;SDS_P2;PMS_P1;PMS_P2;Temp;Humidity;BMP_temperature;BMP_pressure;BME280_temperature;BME280_humidity;BME280_pressure;Samples;Min_cycle;Max_cycle;Signal;HPM_P1;HPM_P2
2024/01/03 00:00:50;;;;;;;10.75;2.08;;;9.50;99.90;;;;;;5041458;28;20029;-72
2024/01/03 00:03:16;;;;;;;12.20;2.78;;;9.50;99.90;;;;;;5041644;28;20060;-67
2024/01/03 00:05:43;;;;;;;15.75;2.13;;;9.50;99.90;;;;;;5041270;28;20056;-67
2024/01/03 00:08:15;;;;;;;12.23;2.00;;;9.50;99.90;;;;;;5041619;28;20057;-70
2024/01/03 00:10:45;;;;;;;10.13;1.52;;;9.50;99.90;;;;;;5039919;28;20112;-68
2024/01/03 00:13:29;;;;;;;9.52;2.20;;;9.50;99.90;;;;;;5041184;28;20021;-70
2024/01/03 00:16:01;;;;;;;12.23;2.47;;;9.60;99.90;;;;;;5041259;28;20030;-71
2024/01/03 00:18:35;;;;;;;9.77;2.25;;;9.50;99.90;;;;;;5041152;28;20025;-68
2024/01/03 00:21:00;;;;;;;9.35;2.80;;;9.60;99.90;;;;;;5039738;28;20033;-71
2024/01/03 00:23:45;;;;;;;17.83;2.80;;;9.60;99.90;;;;;;5039022;28;20112;-72
2024/01/03 00:26:10;;;;;;;;;;;9.60;99.90;;;;;;5041201;28;20052;-73
2024/01/03 00:28:36;;;;;;;7.63;2.22;;;9.60;99.90;;;;;;5039836;28;20713;-69
2024/01/03 00:31:02;;;;;;;10.63;2.50;;;9.50;99.90;;;;;;5041085;28;20029;-69
2024/01/03 00:33:28;;;;;;;9.00;2.53;;;9.50;99.90;;;;;;5039389;28;20120;-69
2024/01/03 00:35:54;;;;;;;14.65;3.50;;;9.40;99.90;;;;;;5040582;28;20041;-67
2024/01/03 00:38:20;;;;;;;11.68;2.83;;;9.40;99.90;;;;;;5041393;28;20056;-72
2024/01/03 00:40:57;;;;;;;15.38;2.58;;;9.40;99.90;;;;;;5041696;28;20030;-69
2024/01/03 00:43:23;;;;;;;9.80;2.53;;;9.40;99.90;;;;;;5041715;28;20028;-70
2024/01/03 00:45:50;;;;;;;6.95;2.35;;;9.40;99.90;;;;;;5041691;28;20760;-68
2024/01/03 00:48:16;;;;;;;14.90;2.83;;;9.30;99.90;;;;;;5041752;28;20030;-72
2024/01/03 00:50:42;;;;;;;14.00;3.42;;;9.30;99.90;;;;;;5039985;28;20418;-68
2024/01/03 00:53:08;;;;;;;13.38;3.20;;;9.30;99.90;;;;;;5040957;28;20048;-69
2024/01/03 00:55:34;;;;;;;13.50;2.75;;;9.30;99.90;;;;;;5041219;28;20072;-67
2024/01/03 00:58:00;;;;;;;14.07;3.03;;;9.30;99.90;;;;;;5041324;28;20104;-68
2024/01/03 01:00:26;;;;;;;11.02;2.42;;;9.30;99.90;;;;;;5040815;28;20719;-70
2024/01/03 01:02:52;;;;;;;13.10;2.50;;;9.30;99.90;;;;;;5039902;28;20076;-68
2024/01/03 01:05:17;;;;;;;15.65;2.28;;;9.30;99.90;;;;;;5041404;28;20028;-69
2024/01/03 01:07:43;;;;;;;10.20;2.60;;;9.20;99.90;;;;;;5040980;28;20033;-70
2024/01/03 01:10:09;;;;;;;14.43;2.42;;;9.20;99.90;;;;;;5041374;28;20036;-68
2024/01/03 01:12:35;;;;;;;21.10;2.72;;;9.10;99.90;;;;;;5041024;28;20030;-67
2024/01/03 01:15:01;;;;;;;19.85;2.60;;;9.10;99.90;;;;;;5039138;28;20041;-67
2024/01/03 01:17:26;;;;;;;8.75;1.70;;;9.00;99.90;;;;;;5041023;28;20041;-71
2024/01/03 01:19:52;;;;;;;7.80;1.55;;;9.00;99.90;;;;;;5040939;28;20029;-71
2024/01/03 01:22:18;;;;;;;10.05;1.80;;;9.00;99.90;;;;;;5040711;28;20486;-69
2024/01/03 01:24:44;;;;;;;11.80;1.98;;;8.90;99.90;;;;;;5041181;28;20047;-70
2024/01/03 01:27:09;;;;;;;9.50;2.58;;;8.90;99.90;;;;;;5040965;28;20084;-70
2024/01/03 01:29:35;;;;;;;10.98;2.90;;;8.90;99.90;;;;;;5039000;28;20025;-68
2024/01/03 01:32:02;;;;;;;16.63;3.92;;;8.90;99.90;;;;;;5040382;28;20033;-68
2024/01/03 01:34:27;;;;;;;16.38;3.55;;;8.90;99.90;;;;;;5040160;28;20049;-68
2024/01/03 01:36:53;;;;;;;8.88;2.63;;;8.90;99.90;;;;;;5040246;28;20375;-70
2024/01/03 01:39:19;;;;;;;18.88;3.10;;;8.90;99.90;;;;;;5040591;28;20025;-72
2024/01/03 01:41:44;;;;;;;17.45;2.40;;;9.00;99.90;;;;;;5040303;28;20044;-68
2024/01/03 01:44:10;;;;;;;12.70;1.65;;;8.90;99.90;;;;;;5040317;28;20017;-73
2024/01/03 01:46:37;;;;;;;14.70;2.15;;;8.90;99.90;;;;;;5039411;28;20022;-69
2024/01/03 01:49:07;;;;;;;11.18;1.60;;;8.80;99.90;;;;;;5038816;28;21156;-67
2024/01/03 01:51:35;;;;;;;5.35;1.50;;;8.80;99.90;;;;;;5039804;28;20131;-68
2024/01/03 01:54:02;;;;;;;3.92;1.30;;;8.80;99.90;;;;;;5040469;28;20029;-69
2024/01/03 01:56:29;;;;;;;5.25;1.20;;;8.70;99.90;;;;;;5040076;28;20049;-69
2024/01/03 01:58:55;;;;;;;9.93;1.38;;;8.70;99.90;;;;;;5039832;28;20026;-70
2024/01/03 02:01:21;;;;;;;4.72;0.90;;;8.70;99.90;;;;;;5040396;28;20085;-68
2024/01/03 02:03:49;;;;;;;10.50;1.92;;;8.60;99.90;;;;;;5039815;28;20053;-71
2024/01/03 02:06:16;;;;;;;7.75;1.17;;;8.60;99.90;;;;;;5039323;28;20017;-68
2024/01/03 02:08:44;;;;;;;5.75;0.85;;;8.60;99.90;;;;;;5039590;28;20116;-69
2024/01/03 02:11:10;;;;;;;9.38;1.73;;;8.60;99.90;;;;;;5037389;28;20049;-67
2024/01/03 02:13:35;;;;;;;3.58;0.77;;;8.50;99.90;;;;;;5037467;28;20106;-69
2024/01/03 02:16:01;;;;;;;13.13;0.93;;;8.50;99.90;;;;;;5037398;28;20041;-71
2024/01/03 02:18:27;;;;;;;5.53;1.17;;;8.50;99.90;;;;;;5036201;28;20029;-69
2024/01/03 02:20:55;;;;;;;3.40;0.80;;;8.50;99.90;;;;;;5036877;28;20028;-68
2024/01/03 02:23:21;;;;;;;10.02;1.10;;;8.40;99.90;;;;;;5038233;28;20063;-70
2024/01/03 02:25:46;;;;;;;8.10;1.23;;;8.40;99.90;;;;;;5038447;28;20041;-67
2024/01/03 02:28:12;;;;;;;7.25;1.20;;;8.40;99.90;;;;;;5038849;28;20029;-70
2024/01/03 02:30:41;;;;;;;12.30;1.10;;;8.30;99.90;;;;;;5037724;28;20029;-71
2024/01/03 02:33:07;;;;;;;2.58;0.88;;;8.30;99.90;;;;;;5038540;28;20029;-70
2024/01/03 02:35:32;;;;;;;7.47;1.23;;;8.20;99.90;;;;;;5038623;28;20043;-69
2024/01/03 02:37:58;;;;;;;4.13;0.80;;;8.20;99.90;;;;;;5036950;28;20033;-68
2024/01/03 02:40:23;;;;;;;5.95;0.85;;;8.20;99.90;;;;;;5037162;28;20099;-70
2024/01/03 02:42:49;;;;;;;6.40;1.00;;;8.10;99.90;;;;;;5038053;28;20026;-71
2024/01/03 02:45:15;;;;;;;3.45;1.05;;;8.10;99.90;;;;;;5038661;28;20026;-68
2024/01/03 02:47:40;;;;;;;2.67;0.93;;;8.10;99.90;;;;;;5036612;28;20029;-70
2024/01/03 02:50:06;;;;;;;5.70;0.95;;;8.10;99.90;;;;;;5036673;28;20040;-68
2024/01/03 02:52:34;;;;;;;5.82;0.80;;;8.00;99.90;;;;;;5038418;28;20079;-70
2024/01/03 02:55:00;;;;;;;4.97;0.98;;;8.00;99.90;;;;;;5038160;28;20033;-69
2024/01/03 02:57:26;;;;;;;5.53;0.90;;;8.00;99.90;;;;;;5038759;28;20032;-72
2024/01/03 02:59:52;;;;;;;4.00;0.90;;;8.00;99.90;;;;;;5037192;28;20026;-71
2024/01/03 03:02:17;;;;;;;5.15;0.98;;;8.00;99.90;;;;;;5041254;28;20032;-70
2024/01/03 03:04:43;;;;;;;6.47;1.35;;;8.00;99.90;;;;;;5042490;28;20482;-70
2024/01/03 03:07:09;;;;;;;8.95;1.38;;;8.00;99.90;;;;;;5042332;28;20031;-70
2024/01/03 03:09:34;;;;;;;7.28;1.73;;;7.90;99.90;;;;;;5042489;28;20092;-66
2024/01/03 03:12:00;;;;;;;6.72;1.63;;;7.90;99.90;;;;;;5042680;28;20054;-68
2024/01/03 03:14:26;;;;;;;8.25;1.20;;;7.90;99.90;;;;;;5039726;28;20049;-70
2024/01/03 03:16:51;;;;;;;7.22;0.98;;;7.90;99.90;;;;;;5041531;28;20357;-71
2024/01/03 03:19:17;;;;;;;10.68;1.42;;;7.90;99.90;;;;;;5042788;28;20109;-69
2024/01/03 03:21:42;;;;;;;9.27;1.75;;;7.90;99.90;;;;;;5042328;28;20598;-70
2024/01/03 03:24:08;;;;;;;13.02;1.50;;;7.90;99.90;;;;;;5042061;28;20025;-69
2024/01/03 03:26:34;;;;;;;5.65;0.98;;;7.90;99.90;;;;;;5042263;28;20035;-69
2024/01/03 03:29:00;;;;;;;7.45;1.27;;;7.90;99.90;;;;;;5040199;28;20076;-68
2024/01/03 03:31:25;;;;;;;5.13;1.10;;;7.90;99.90;;;;;;5042016;28;20029;-69
2024/01/03 03:33:51;;;;;;;5.93;1.45;;;7.90;99.90;;;;;;5041577;28;20028;-69
2024/01/03 03:36:17;;;;;;;5.80;0.82;;;7.90;99.90;;;;;;5040504;28;20102;-69
2024/01/03 03:38:43;;;;;;;9.25;1.10;;;7.90;99.90;;;;;;5041992;28;20036;-67
2024/01/03 03:41:12;;;;;;;5.20;1.70;;;7.90;99.90;;;;;;5040555;28;20065;-69
2024/01/03 03:43:39;;;;;;;4.38;0.93;;;7.90;99.90;;;;;;5041422;28;20038;-69
2024/01/03 03:46:08;;;;;;;5.38;0.80;;;7.90;99.90;;;;;;5041270;28;20026;-67
2024/01/03 03:48:34;;;;;;;6.25;1.13;;;7.90;99.90;;;;;;5039917;28;20038;-66
2024/01/03 03:51:04;;;;;;;4.38;0.95;;;7.90;99.90;;;;;;5039552;28;20060;-70
2024/01/03 03:53:30;;;;;;;5.05;1.10;;;7.90;99.90;;;;;;5040228;28;20040;-69
2024/01/03 03:55:55;;;;;;;2.95;0.60;;;7.90;99.90;;;;;;5041828;28;20045;-71
2024/01/03 03:58:21;;;;;;;3.42;0.70;;;7.90;99.90;;;;;;5040799;28;20018;-68
2024/01/03 04:00:47;;;;;;;3.63;0.70;;;7.90;99.90;;;;;;5041854;28;20022;-70
2024/01/03 04:03:12;;;;;;;5.00;0.98;;;8.00;99.90;;;;;;5040933;28;20056;-68
2024/01/03 04:05:38;;;;;;;5.53;1.13;;;8.00;99.90;;;;;;5041246;28;20068;-68
2024/01/03 04:08:04;;;;;;;4.90;0.98;;;8.00;99.90;;;;;;5039620;28;20495;-69
2024/01/03 04:10:30;;;;;;;3.72;0.75;;;8.00;99.90;;;;;;5040737;28;20030;-68
2024/01/03 04:12:56;;;;;;;4.90;0.68;;;8.00;99.90;;;;;;5039712;28;20034;-67
2024/01/03 04:15:22;;;;;;;1.90;0.70;;;8.00;99.90;;;;;;5039932;28;20408;-70
2024/01/03 04:17:48;;;;;;;3.72;0.80;;;8.00;99.90;;;;;;5039339;28;20038;-71
2024/01/03 04:20:14;;;;;;;6.03;0.77;;;8.00;99.90;;;;;;5041555;28;20080;-71
2024/01/03 04:22:43;;;;;;;4.10;0.90;;;8.00;99.90;;;;;;5041127;28;20033;-69
2024/01/03 04:25:09;;;;;;;6.25;1.02;;;8.00;99.90;;;;;;5039472;28;20052;-71
2024/01/03 04:27:35;;;;;;;3.30;0.65;;;8.10;99.90;;;;;;5040834;28;20025;-70
2024/01/03 04:30:00;;;;;;;3.25;0.50;;;8.10;99.90;;;;;;5040434;28;20081;-69
2024/01/03 04:32:26;;;;;;;3.95;0.80;;;8.10;99.90;;;;;;5038520;28;20053;-68
2024/01/03 04:34:52;;;;;;;4.80;0.75;;;8.10;99.90;;;;;;5040979;28;20041;-70
2024/01/03 04:37:20;;;;;;;2.72;0.90;;;8.10;99.90;;;;;;5039774;28;20049;-69
2024/01/03 04:39:46;;;;;;;4.97;0.70;;;8.10;99.90;;;;;;5039194;28;20081;-69
2024/01/03 04:42:12;;;;;;;4.63;0.50;;;8.10;99.90;;;;;;5041158;28;20099;-70
2024/01/03 04:44:37;;;;;;;2.83;0.88;;;8.10;99.90;;;;;;5040324;28;20442;-70
2024/01/03 04:47:03;;;;;;;1.70;0.60;;;8.10;99.90;;;;;;5040287;28;20025;-68
2024/01/03 04:49:29;;;;;;;3.00;0.60;;;8.10;99.90;;;;;;5040633;28;20030;-70
2024/01/03 04:51:55;;;;;;;2.65;0.70;;;8.10;99.90;;;;;;5040403;28;20032;-70
2024/01/03 04:54:21;;;;;;;2.88;0.50;;;8.00;99.90;;;;;;5038276;28;20029;-67
2024/01/03 04:56:47;;;;;;;3.67;0.50;;;8.10;99.90;;;;;;5039771;28;20158;-71
2024/01/03 04:59:12;;;;;;;3.42;0.70;;;8.10;99.90;;;;;;5037506;28;20461;-71
2024/01/03 05:01:40;;;;;;;4.78;0.65;;;8.10;99.90;;;;;;5040192;28;20056;-69
2024/01/03 05:04:05;;;;;;;2.92;0.70;;;8.00;99.90;;;;;;5039949;28;20048;-67
2024/01/03 05:06:32;;;;;;;2.10;0.60;;;8.00;99.90;;;;;;5039360;28;20018;-69
2024/01/03 05:08:57;;;;;;;5.75;0.68;;;8.00;99.90;;;;;;5039256;28;20103;-69
2024/01/03 05:11:23;;;;;;;2.90;0.75;;;8.10;99.90;;;;;;5039668;28;20041;-70
2024/01/03 05:13:49;;;;;;;1.13;0.55;;;8.00;99.90;;;;;;5038787;28;20487;-72
2024/01/03 05:16:14;;;;;;;1.60;0.80;;;8.00;99.90;;;;;;5039651;28;20383;-71
2024/01/03 05:18:40;;;;;;;6.75;0.50;;;8.00;99.90;;;;;;5037282;28;20040;-70
2024/01/03 05:21:06;;;;;;;7.97;0.80;;;8.00;99.90;;;;;;5039719;28;20022;-69
2024/01/03 05:23:32;;;;;;;3.72;0.80;;;8.00;99.90;;;;;;5038948;28;20041;-70
2024/01/03 05:25:57;;;;;;;1.50;0.60;;;8.00;99.90;;;;;;5039105;28;20049;-70
2024/01/03 05:28:23;;;;;;;2.38;0.82;;;8.00;99.90;;;;;;5038524;28;20034;-71
2024/01/03 05:30:49;;;;;;;2.90;0.70;;;8.00;99.90;;;;;;5039270;28;20029;-68
2024/01/03 05:33:15;;;;;;;3.38;0.73;;;8.00;99.90;;;;;;5032999;28;20029;-68
2024/01/03 05:35:40;;;;;;;2.60;0.70;;;8.00;99.90;;;;;;5036308;28;20107;-69
2024/01/03 05:38:06;;;;;;;2.67;0.80;;;8.00;99.90;;;;;;5036314;28;20037;-69
2024/01/03 05:40:31;;;;;;;2.08;0.82;;;8.00;99.90;;;;;;5038872;28;20042;-70
2024/01/03 05:42:57;;;;;;;1.77;0.70;;;8.00;99.90;;;;;;5038170;28;20034;-71
2024/01/03 05:45:22;;;;;;;4.22;1.20;;;8.00;99.90;;;;;;5037520;28;20033;-69
2024/01/03 05:47:48;;;;;;;1.38;0.70;;;8.00;99.90;;;;;;5039628;28;20072;-69
2024/01/03 05:50:14;;;;;;;2.95;1.02;;;8.00;99.90;;;;;;5036298;28;20033;-69
2024/01/03 05:52:39;;;;;;;2.95;1.02;;;8.00;99.90;;;;;;5038221;28;20141;-72
2024/01/03 05:55:06;;;;;;;2.65;1.10;;;8.00;99.90;;;;;;5034763;28;20144;-70
2024/01/03 05:57:32;;;;;;;13.02;2.05;;;8.00;99.90;;;;;;5037413;28;20021;-71
2024/01/03 05:59:58;;;;;;;27.20;2.30;;;8.00;99.90;;;;;;5038341;28;20029;-71
2024/01/03 06:02:24;;;;;;;18.83;2.30;;;8.00;99.90;;;;;;5037937;28;20049;-70
2024/01/03 06:04:49;;;;;;;22.17;2.88;;;8.00;99.90;;;;;;5039035;28;20026;-70
2024/01/03 06:07:15;;;;;;;22.98;2.55;;;8.00;99.90;;;;;;5039369;28;20028;-69
2024/01/03 06:09:40;;;;;;;23.52;2.97;;;8.00;99.90;;;;;;5035344;28;20026;-70
2024/01/03 06:12:06;;;;;;;31.65;2.85;;;8.00;99.90;;;;;;5039277;28;20033;-70
2024/01/03 06:14:32;;;;;;;23.77;2.28;;;8.10;99.90;;;;;;5039213;28;20389;-70
2024/01/03 06:16:57;;;;;;;21.20;2.47;;;8.10;99.90;;;;;;5037332;28;20026;-71
2024/01/03 06:19:23;;;;;;;19.35;3.38;;;8.10;99.90;;;;;;5037816;28;20037;-70
2024/01/03 06:21:48;;;;;;;18.27;2.53;;;8.10;99.90;;;;;;5038954;28;20034;-71
2024/01/03 06:24:14;;;;;;;21.42;2.25;;;8.10;99.90;;;;;;5038561;28;20068;-72
2024/01/03 06:26:40;;;;;;;17.60;2.13;;;8.10;99.90;;;;;;5038023;28;20030;-69
2024/01/03 06:29:05;;;;;;;18.17;2.40;;;8.10;99.90;;;;;;5034317;28;20466;-71
2024/01/03 06:31:31;;;;;;;15.60;2.03;;;8.10;99.90;;;;;;5033710;28;20029;-67
2024/01/03 06:33:56;;;;;;;16.52;2.10;;;8.20;99.90;;;;;;5036476;28;20052;-71
2024/01/03 06:36:22;;;;;;;21.55;3.15;;;8.20;99.90;;;;;;5037223;28;20083;-74
2024/01/03 06:38:48;;;;;;;19.40;2.63;;;8.20;99.90;;;;;;5036896;28;20433;-70
2024/01/03 06:41:14;;;;;;;15.43;2.28;;;8.20;99.90;;;;;;5038443;28;20017;-70
2024/01/03 06:43:39;;;;;;;14.82;1.83;;;8.20;99.90;;;;;;5038422;28;20041;-72
2024/01/03 06:46:05;;;;;;;20.08;2.22;;;8.20;99.90;;;;;;5038037;28;20037;-70
2024/01/03 06:48:31;;;;;;;26.25;2.60;;;8.20;99.90;;;;;;5037813;28;20529;-69
2024/01/03 06:50:57;;;;;;;14.45;3.13;;;8.30;99.90;;;;;;5037562;28;20025;-72
2024/01/03 06:53:22;;;;;;;15.25;3.42;;;8.20;99.90;;;;;;5036367;28;20032;-71
2024/01/03 06:55:50;;;;;;;19.75;2.95;;;8.40;99.90;;;;;;5038732;28;20060;-69
2024/01/03 06:58:19;;;;;;;16.65;1.75;;;8.30;99.90;;;;;;5038368;28;20021;-70
2024/01/03 07:00:45;;;;;;;19.92;2.92;;;8.30;99.90;;;;;;5038243;28;20056;-70
2024/01/03 07:03:10;;;;;;;22.55;2.60;;;8.30;99.90;;;;;;5038309;28;20117;-69
2024/01/03 07:05:36;;;;;;;26.98;3.00;;;8.30;99.90;;;;;;5036650;28;20607;-70
2024/01/03 07:08:02;;;;;;;16.10;1.88;;;8.30;99.90;;;;;;5038242;28;20053;-68
2024/01/03 07:10:31;;;;;;;10.20;1.80;;;8.30;99.90;;;;;;5036638;28;20033;-72
2024/01/03 07:12:58;;;;;;;22.40;2.63;;;8.30;99.90;;;;;;5037126;28;20033;-68
2024/01/03 07:15:27;;;;;;;22.17;2.20;;;8.40;99.90;;;;;;5037863;28;20037;-69
2024/01/03 07:17:56;;;;;;;22.90;3.25;;;8.40;99.90;;;;;;5036699;28;20030;-71
2024/01/03 07:20:22;;;;;;;27.58;2.97;;;8.40;99.90;;;;;;5038266;28;20103;-70
2024/01/03 07:22:49;;;;;;;19.63;3.13;;;8.50;99.90;;;;;;5037786;28;20033;-68
2024/01/03 07:25:14;;;;;;;20.90;2.70;;;8.50;99.90;;;;;;5038225;28;20032;-68
2024/01/03 07:27:40;;;;;;;22.48;2.75;;;8.50;99.90;;;;;;5038411;28;20037;-70
2024/01/03 07:30:06;;;;;;;20.60;3.13;;;8.50;99.90;;;;;;5037064;28;20029;-69
2024/01/03 07:32:32;;;;;;;19.48;2.40;;;8.50;99.90;;;;;;5037795;28;21505;-70
2024/01/03 07:34:58;;;;;;;25.08;3.40;;;8.50;99.90;;;;;;5037555;28;20037;-69
2024/01/03 07:37:24;;;;;;;21.15;2.35;;;8.50;99.90;;;;;;5038362;28;20025;-68
2024/01/03 07:39:49;;;;;;;23.13;3.10;;;8.50;99.90;;;;;;5036829;28;20053;-71
2024/01/03 07:42:15;;;;;;;20.48;2.97;;;8.50;99.90;;;;;;5038318;28;20033;-70
2024/01/03 07:44:42;;;;;;;27.25;3.05;;;8.50;99.90;;;;;;5038161;28;20036;-68
2024/01/03 07:47:08;;;;;;;23.13;3.38;;;8.50;99.90;;;;;;5040213;28;20979;-70
2024/01/03 07:49:36;;;;;;;15.02;2.38;;;8.50;99.90;;;;;;5040375;28;20423;-70
2024/01/03 07:52:01;;;;;;;23.27;3.28;;;8.50;99.90;;;;;;5032590;28;20045;-70
2024/01/03 07:54:27;;;;;;;16.48;2.50;;;8.50;99.90;;;;;;5038174;28;20033;-71
2024/01/03 07:56:53;;;;;;;11.68;2.35;;;8.50;99.90;;;;;;5037469;28;20033;-71
2024/01/03 07:59:18;;;;;;;19.10;2.53;;;8.50;99.90;;;;;;5038867;28;20111;-69
2024/01/03 08:01:44;;;;;;;15.90;2.28;;;8.50;99.90;;;;;;5038459;28;20037;-71
2024/01/03 08:04:10;;;;;;;15.52;2.70;;;8.60;99.90;;;;;;5038967;28;20046;-69
2024/01/03 08:06:35;;;;;;;23.17;3.03;;;8.60;99.90;;;;;;5037629;28;20526;-70
2024/01/03 08:09:01;;;;;;;18.40;2.85;;;8.60;99.90;;;;;;5040359;28;20454;-70
2024/01/03 08:11:26;;;;;;;18.33;2.70;;;8.60;99.90;;;;;;5041359;28;20040;-69
2024/01/03 08:13:52;;;;;;;14.45;1.95;;;8.60;99.90;;;;;;5040701;28;20028;-70
2024/01/03 08:16:17;;;;;;;18.10;2.42;;;8.60;99.90;;;;;;5040334;28;20053;-71
2024/01/03 08:18:44;;;;;;;15.80;2.10;;;8.60;99.90;;;;;;5041252;28;20029;-69
2024/01/03 08:21:10;;;;;;;16.15;2.50;;;8.50;99.90;;;;;;5040195;28;20041;-71
2024/01/03 08:23:35;;;;;;;13.00;1.55;;;8.60;99.90;;;;;;5039275;28;20021;-69
2024/01/03 08:26:08;;;;;;;11.80;1.67;;;8.60;99.90;;;;;;5040546;28;20013;-69
2024/01/03 08:28:36;;;;;;;9.98;1.65;;;8.60;99.90;;;;;;5035073;28;20127;-70
2024/01/03 08:31:02;;;;;;;10.82;1.70;;;8.60;99.90;;;;;;5036512;28;20029;-74
2024/01/03 08:33:27;;;;;;;16.75;2.17;;;8.60;99.90;;;;;;5036713;28;20037;-72
2024/01/03 08:35:53;;;;;;;7.95;1.65;;;8.60;99.90;;;;;;5037507;28;20038;-70
2024/01/03 08:38:19;;;;;;;15.80;1.90;;;8.70;99.90;;;;;;5039091;28;20036;-71
2024/01/03 08:40:44;;;;;;;12.52;1.75;;;8.70;99.90;;;;;;5040687;28;20060;-69
2024/01/03 08:43:10;;;;;;;10.32;1.63;;;8.70;99.90;;;;;;5039862;28;20033;-72
2024/01/03 08:45:35;;;;;;;10.85;1.60;;;8.80;99.90;;;;;;5040556;28;20093;-71
2024/01/03 08:48:03;;;;;;;13.80;1.70;;;8.80;99.90;;;;;;5040762;28;20047;-69
2024/01/03 08:50:29;;;;;;;17.98;2.33;;;8.80;99.90;;;;;;5038925;28;20543;-73
2024/01/03 08:52:55;;;;;;;13.68;2.20;;;8.90;99.90;;;;;;5038216;28;20080;-69
2024/01/03 08:55:20;;;;;;;9.93;1.73;;;8.90;99.90;;;;;;5037798;28;20040;-72
2024/01/03 08:57:48;;;;;;;13.25;2.28;;;9.00;99.90;;;;;;5033527;28;20025;-73
2024/01/03 09:00:14;;;;;;;12.52;1.98;;;9.10;99.90;;;;;;5037733;28;20038;-75
2024/01/03 09:02:40;;;;;;;20.48;2.83;;;9.10;99.90;;;;;;5035634;28;20052;-69
2024/01/03 09:05:06;;;;;;;21.35;2.55;;;9.10;99.90;;;;;;5038738;28;20030;-70
2024/01/03 09:07:32;;;;;;;23.77;2.95;;;9.10;99.90;;;;;;5037210;28;20063;-69
2024/01/03 09:09:57;;;;;;;24.10;2.42;;;9.10;99.90;;;;;;5040461;28;20048;-71
2024/01/03 09:12:24;;;;;;;25.00;3.08;;;9.10;99.90;;;;;;5032562;28;20055;-76
2024/01/03 09:14:50;;;;;;;23.00;2.38;;;9.20;99.90;;;;;;5035986;28;20025;-72
2024/01/03 09:17:15;;;;;;;19.80;2.80;;;9.20;99.90;;;;;;5034933;28;20025;-71
2024/01/03 09:19:41;;;;;;;13.32;2.33;;;9.20;99.90;;;;;;5038773;28;20429;-69
2024/01/03 09:22:07;;;;;;;18.27;3.25;;;9.40;99.90;;;;;;5040702;28;20053;-70
2024/01/03 09:24:32;;;;;;;18.33;2.90;;;9.50;99.90;;;;;;5039103;28;20060;-71
2024/01/03 09:26:58;;;;;;;17.58;2.20;;;9.60;99.90;;;;;;5039265;28;20028;-69
2024/01/03 09:29:23;;;;;;;20.05;3.13;;;9.60;99.90;;;;;;5040931;28;21214;-71
2024/01/03 09:31:49;;;;;;;14.27;2.13;;;9.60;99.90;;;;;;5029377;28;20037;-72
2024/01/03 09:34:15;;;;;;;14.77;2.38;;;9.60;99.90;;;;;;5036463;28;20037;-69
2024/01/03 09:36:40;;;;;;;18.60;2.55;;;9.60;99.90;;;;;;5035267;28;20044;-69
2024/01/03 09:39:08;;;;;;;14.63;2.10;;;9.60;99.90;;;;;;5035672;28;20548;-69
2024/01/03 09:41:34;;;;;;;19.35;2.30;;;9.60;99.90;;;;;;5038610;28;20017;-68
2024/01/03 09:44:01;;;;;;;12.70;2.17;;;9.50;99.90;;;;;;5034420;28;20160;-70
2024/01/03 09:46:27;;;;;;;18.65;2.10;;;9.50;99.90;;;;;;5032278;28;20057;-69
2024/01/03 09:48:53;;;;;;;19.45;2.90;;;9.50;99.90;;;;;;5037868;28;20474;-69
2024/01/03 09:51:21;;;;;;;16.20;2.78;;;9.40;99.90;;;;;;5037617;28;20033;-74
2024/01/03 09:53:54;;;;;;;15.10;2.60;;;9.50;99.90;;;;;;5035739;28;20031;-72
2024/01/03 09:56:22;;;;;;;21.10;3.40;;;9.50;99.90;;;;;;5038298;28;20104;-70
2024/01/03 09:58:48;;;;;;;16.40;2.85;;;9.40;99.90;;;;;;5038593;28;20033;-70
2024/01/03 10:01:14;;;;;;;21.17;2.35;;;9.50;99.90;;;;;;5038071;28;20085;-70
2024/01/03 10:03:39;;;;;;;20.00;2.70;;;9.40;99.90;;;;;;5025748;28;20057;-70
2024/01/03 10:06:18;;;;;;;15.13;2.25;;;9.40;99.90;;;;;;5032664;28;20032;-71
2024/01/03 10:09:01;;;;;;;12.57;2.40;;;9.50;99.90;;;;;;5036893;28;20742;-69
2024/01/03 10:11:27;;;;;;;12.73;2.80;;;9.50;99.90;;;;;;5036706;28;20041;-70
2024/01/03 10:13:54;;;;;;;25.60;2.78;;;9.50;99.90;;;;;;5035690;28;20048;-71
2024/01/03 10:16:28;;;;;;;17.92;2.13;;;9.50;99.90;;;;;;5037241;28;20049;-71
2024/01/03 10:19:20;;;;;;;14.70;2.58;;;9.50;99.90;;;;;;5037442;28;20049;-70
2024/01/03 10:21:52;;;;;;;14.20;2.33;;;9.60;99.90;;;;;;5036940;28;20441;-71
2024/01/03 10:24:20;;;;;;;15.52;2.03;;;9.60;99.90;;;;;;5038724;28;20089;-69
2024/01/03 10:27:06;;;;;;;22.27;2.20;;;9.60;99.90;;;;;;5036096;28;20085;-72
2024/01/03 10:29:33;;;;;;;20.55;2.40;;;9.70;99.90;;;;;;5037498;28;20029;-68
2024/01/03 10:31:59;;;;;;;20.20;2.67;;;9.70;99.90;;;;;;5037012;28;20024;-69
2024/01/03 10:34:24;;;;;;;19.42;2.67;;;9.90;99.90;;;;;;5036426;28;20033;-71
2024/01/03 10:36:52;;;;;;;20.52;2.95;;;9.90;99.90;;;;;;5037532;28;20489;-69
2024/01/03 10:39:22;;;;;;;25.38;2.95;;;10.00;99.90;;;;;;5036925;28;20134;-71
2024/01/03 10:41:48;;;;;;;17.23;2.75;;;10.30;99.90;;;;;;5038854;28;20096;-69
2024/01/03 10:44:16;;;;;;;18.08;2.58;;;10.50;99.90;;;;;;5036755;28;20030;-69
2024/01/03 10:46:43;;;;;;;16.33;2.00;;;10.60;99.90;;;;;;5037856;28;20040;-70
2024/01/03 10:49:11;;;;;;;15.07;2.17;;;10.60;99.90;;;;;;5031302;28;20044;-71
2024/01/03 10:51:42;;;;;;;13.23;2.70;;;10.50;99.90;;;;;;5035916;28;20532;-69
2024/01/03 10:54:12;;;;;;;16.15;2.25;;;10.30;99.90;;;;;;5032892;28;20083;-71
2024/01/03 10:56:38;;;;;;;12.57;2.20;;;10.20;99.90;;;;;;5035785;28;20049;-69
2024/01/03 10:59:06;;;;;;;10.48;1.92;;;10.10;99.90;;;;;;5036851;28;20030;-70
2024/01/03 11:01:47;;;;;;;10.50;1.77;;;10.00;99.90;;;;;;5036822;28;20048;-69
2024/01/03 11:04:52;;;;;;;13.90;2.05;;;10.00;99.90;;;;;;5036834;28;20049;-70
2024/01/03 11:07:28;;;;;;;14.93;1.85;;;9.90;99.90;;;;;;5036230;28;20104;-70
2024/01/03 11:09:54;;;;;;;11.60;1.75;;;9.90;99.90;;;;;;5036990;28;20044;-69
2024/01/03 11:12:27;;;;;;;10.77;1.90;;;9.80;99.90;;;;;;5036579;28;20080;-72
2024/01/03 11:14:53;;;;;;;12.02;1.90;;;9.80;99.90;;;;;;5037069;28;20038;-71
2024/01/03 11:17:33;;;;;;;15.10;2.30;;;9.70;99.90;;;;;;5036887;28;20079;-69
2024/01/03 11:20:07;;;;;;;8.70;1.55;;;9.70;99.90;;;;;;5036029;28;20460;-72
2024/01/03 11:22:58;;;;;;;14.45;1.83;;;9.60;99.90;;;;;;5037495;28;20033;-68
2024/01/03 11:25:52;;;;;;;15.88;2.15;;;9.60;99.90;;;;;;5038494;28;20033;-69
2024/01/03 11:28:31;;;;;;;13.60;2.33;;;9.60;99.90;;;;;;5041556;28;20360;-72
2024/01/03 11:30:58;;;;;;;18.38;2.10;;;9.60;99.90;;;;;;5040971;28;20378;-71
2024/01/03 11:33:27;;;;;;;12.25;2.17;;;9.70;99.90;;;;;;5032164;28;20033;-68
2024/01/03 11:35:53;;;;;;;17.20;2.10;;;9.60;99.90;;;;;;5039946;28;20055;-72
2024/01/03 11:38:41;;;;;;;15.98;1.98;;;9.80;99.90;;;;;;5040217;28;20060;-69
2024/01/03 11:41:08;;;;;;;13.05;1.98;;;10.10;99.90;;;;;;5038380;28;20058;-69
2024/01/03 11:43:34;;;;;;;13.40;2.03;;;10.20;99.90;;;;;;5038734;28;20033;-69
2024/01/03 11:46:10;;;;;;;17.80;2.45;;;10.20;99.90;;;;;;5040918;28;20036;-70
2024/01/03 11:48:37;;;;;;;9.85;1.90;;;10.40;99.90;;;;;;5041283;28;20029;-72
2024/01/03 11:51:20;;;;;;;11.68;1.80;;;10.50;99.90;;;;;;5041332;28;20026;-69
2024/01/03 11:53:45;;;;;;;9.02;1.85;;;10.60;99.90;;;;;;5040653;28;20048;-70
2024/01/03 11:56:11;;;;;;;13.65;1.88;;;10.80;99.90;;;;;;5042069;28;20037;-70
2024/01/03 11:58:37;;;;;;;10.88;2.28;;;11.10;99.90;;;;;;5041664;28;20691;-69
2024/01/03 12:01:07;;;;;;;9.95;1.52;;;11.30;99.90;;;;;;5040414;28;20083;-70
2024/01/03 12:03:33;;;;;;;9.15;1.85;;;11.80;99.90;;;;;;5036502;28;20081;-73
2024/01/03 12:05:59;;;;;;;8.85;1.77;;;12.20;99.90;;;;;;5038386;28;20044;-69
2024/01/03 12:08:24;;;;;;;10.80;1.60;;;12.50;99.90;;;;;;5039815;28;20033;-72
2024/01/03 12:10:50;;;;;;;7.53;1.67;;;12.50;99.90;;;;;;5040010;28;20040;-70
2024/01/03 12:13:15;;;;;;;14.07;1.67;;;12.30;99.90;;;;;;5040885;28;20041;-72
2024/01/03 12:15:41;;;;;;;9.30;1.50;;;12.30;99.90;;;;;;5039780;28;20504;-70
2024/01/03 12:18:08;;;;;;;9.88;1.40;;;12.30;99.90;;;;;;5039267;28;20026;-69
2024/01/03 12:20:36;;;;;;;12.45;1.52;;;12.10;99.90;;;;;;5041550;28;20030;-70
2024/01/03 12:23:09;;;;;;;11.85;1.50;;;11.80;99.90;;;;;;5040850;28;20025;-68
2024/01/03 12:25:35;;;;;;;13.50;1.67;;;11.60;99.90;;;;;;5042125;28;20159;-69
2024/01/03 12:28:00;;;;;;;11.40;2.05;;;11.20;99.90;;;;;;5041176;28;20053;-69
2024/01/03 12:30:26;;;;;;;14.63;2.25;;;11.10;99.90;;;;;;5040683;28;20126;-70
2024/01/03 12:33:11;;;;;;;13.10;1.88;;;11.10;99.90;;;;;;5037455;28;20450;-71
2024/01/03 12:35:37;;;;;;;12.70;1.75;;;11.20;99.90;;;;;;5040554;28;20038;-70
2024/01/03 12:38:04;;;;;;;12.90;2.05;;;11.00;99.90;;;;;;5040234;28;20033;-67
2024/01/03 12:40:29;;;;;;;7.90;1.23;;;10.80;99.90;;;;;;5040249;28;20025;-68
2024/01/03 12:42:55;;;;;;;14.95;2.38;;;10.70;99.90;;;;;;5041001;28;20120;-69
2024/01/03 12:45:21;;;;;;;13.10;2.08;;;10.80;99.90;;;;;;5041160;28;20045;-70
2024/01/03 12:47:46;;;;;;;14.70;2.47;;;11.20;99.90;;;;;;5037215;28;20029;-70
2024/01/03 12:50:12;;;;;;;9.18;1.73;;;11.70;99.90;;;;;;5038532;28;20025;-70